Latest Weather Observations for Parndana

IDS60801

Issued at 3:02 pm CST Monday 23 September 2019 (issued every 10 minutes, with the page automatically refreshed every 10 minutes)

About weather observations | Map of weather stations | Latest weather observations for SA | Other Formats
Station Details ID: 022843 Name: PARNDANA CFS AWS Lat: -35.79 Lon: 137.25 Height: 165.0 m
Data from the previous 72 hours. | See also: Recent months at Parndana
Date/Time
CST
Temp
°C
App
Temp
°C
Dew
Point
°C
Rel
Hum
%
Delta-T
°C
Wind Press
QNH
hPa
Press
MSL
hPa
Rain since
9am
mm
Dir  Spd
km/h
Gust
km/h
Spd
kts
Gust
kts
23/03:00pm 12.6 8.6 8.1 74 2.2 SW 19 22 10 12 - - -
23/02:30pm 11.7 7.7 6.8 72 2.4 SSW 17 20 9 11 - - 0.0
23/02:00pm 13.1 10.3 7.1 67 2.9 SW 11 22 6 12 - - 0.0
23/01:30pm 13.7 10.5 7.0 64 3.3 WSW 13 22 7 12 - - 0.0
23/01:00pm 12.6 8.6 4.8 59 3.6 SW 15 22 8 12 - - 0.0
23/12:30pm 12.8 8.5 5.2 60 3.6 SW 17 26 9 14 - - 0.0
23/12:00pm 12.3 7.7 5.7 64 3.1 SW 19 24 10 13 - - 0.0
23/11:30am 12.5 9.0 5.4 62 3.3 SW 13 19 7 10 - - 0.0
23/11:00am 12.5 9.4 5.7 63 3.2 WSW 11 19 6 10 - - 0.0
23/10:30am 11.9 7.8 6.0 67 2.8 WSW 17 24 9 13 - - 0.0
23/10:00am 11.7 7.6 6.4 70 2.5 WSW 17 22 9 12 - - 0.0
23/09:30am 11.8 6.8 6.5 70 2.5 WSW 22 28 12 15 - - 0.0
23/09:00am 11.5 7.6 7.2 75 2.1 WSW 17 28 9 15 - - 4.8
23/08:30am 10.3 8.1 7.7 84 1.3 WSW 9 15 5 8 - - 4.8
23/08:00am 9.2 5.7 7.0 86 1.0 WSW 15 19 8 10 - - 4.8
23/07:30am 9.1 6.4 7.2 88 0.9 WNW 11 15 6 8 - - 4.8
23/07:00am 7.8 4.9 6.7 93 0.5 WNW 11 13 6 7 - - 4.8
23/06:30am 5.0 1.6 3.8 92 0.5 WNW 11 13 6 7 - - 4.8
23/06:00am 6.3 3.4 4.9 91 0.6 W 9 11 5 6 - - 4.8
23/05:30am 7.2 4.2 6.1 93 0.5 W 11 13 6 7 - - 4.8
23/05:00am 5.8 2.5 4.6 92 0.5 NW 11 11 6 6 - - 4.8
23/04:30am 4.9 1.4 3.6 91 0.5 W 11 11 6 6 - - 4.6
23/04:00am 6.1 3.2 4.7 91 0.6 W 9 11 5 6 - - 4.6
23/03:30am 5.8 2.1 4.3 90 0.6 W 13 15 7 8 - - 4.6
23/03:00am 6.4 2.5 5.4 93 0.4 W 15 19 8 10 - - 4.6
23/02:30am 6.5 2.6 5.3 92 0.5 WNW 15 19 8 10 - - 4.6
23/02:00am 5.8 2.1 4.4 91 0.6 WNW 13 15 7 8 - - 4.6
23/01:30am 6.7 3.1 5.2 90 0.7 WSW 13 15 7 8 - - 4.6
23/01:00am 6.0 2.3 4.6 91 0.6 WSW 13 15 7 8 - - 4.6
23/12:30am 6.8 2.9 5.3 90 0.7 WSW 15 20 8 11 - - 4.6
23/12:00am 6.2 2.6 5.0 92 0.5 W 13 17 7 9 - - 4.6
 
Date/Time
CST
Temp
°C
App
Temp
°C
Dew
Point
°C
Rel
Hum
%
Delta-T
°C
Wind Press
QNH
hPa
Press
MSL
hPa
Rain since
9am
mm
Dir  Spd
km/h
Gust
km/h
Spd
kts
Gust
kts
22/11:30pm 5.2 1.0 4.0 92 0.5 W 15 19 8 10 - - 4.6
22/11:00pm 5.7 2.0 4.5 92 0.5 W 13 15 7 8 - - 4.6
22/10:30pm 5.0 1.2 3.8 92 0.5 W 13 15 7 8 - - 4.6
22/10:00pm 4.2 0.2 2.9 91 0.5 W 13 15 7 8 - - 4.4
22/09:30pm 5.3 2.2 3.6 89 0.7 W 9 13 5 7 - - 4.4
22/09:00pm 6.5 3.0 5.3 92 0.5 WSW 13 17 7 9 - - 4.4
22/08:30pm 6.4 2.0 5.0 91 0.6 WSW 17 20 9 11 - - 4.4
22/08:00pm 6.2 2.2 5.0 92 0.5 W 15 19 8 10 - - 4.4
22/07:30pm 5.8 2.1 4.4 91 0.6 W 13 15 7 8 - - 4.4
22/07:00pm 7.0 3.9 5.5 90 0.7 WSW 11 13 6 7 - - 4.4
22/06:30pm 8.2 4.6 6.7 90 0.7 W 15 17 8 9 - - 4.4
22/06:00pm 8.6 4.3 6.9 89 0.8 WSW 19 26 10 14 - - 4.0
22/05:30pm 8.8 3.1 6.8 87 0.9 W 26 43 14 23 - - 3.8
22/05:00pm 10.6 5.4 7.1 79 1.7 W 24 35 13 19 - - 3.0
22/04:30pm 10.2 4.6 7.1 81 1.5 WSW 26 35 14 19 - - 3.0
22/04:00pm 11.3 5.7 7.2 76 2.0 W 26 35 14 19 - - 3.0
22/03:39pm 11.2 5.5 8.2 82 1.5 W 28 46 15 25 - - 3.0
22/03:30pm 10.1 3.8 7.3 83 1.3 W 30 48 16 26 - - 2.8
22/03:00pm 10.9 4.6 7.2 78 1.8 W 30 50 16 27 - - 2.0
22/02:59pm 11.1 4.8 7.4 78 1.8 W 30 50 16 27 - - 2.0
22/02:30pm 12.9 6.9 8.6 75 2.2 WNW 30 41 16 22 - - 1.6
22/02:00pm 12.5 7.4 9.1 80 1.7 WNW 26 39 14 21 - - 1.6
22/01:30pm 10.4 5.0 7.8 84 1.3 W 26 39 14 21 - - 1.4
22/01:00pm 12.2 6.2 8.7 79 1.8 W 30 39 16 21 - - 0.6
22/12:30pm 11.8 5.3 8.1 78 1.8 NW 32 48 17 26 - - 0.6
22/12:04pm 11.7 5.2 8.0 78 1.8 WNW 32 52 17 28 - - 0.6
22/12:00pm 11.1 3.8 7.4 78 1.8 WNW 35 52 19 28 - - 0.6
22/11:30am 10.2 2.7 6.2 76 1.9 WNW 35 57 19 31 - - 0.6
22/11:25am 12.5 6.6 7.6 72 2.4 NW 28 46 15 25 - - 0.6
22/11:00am 11.2 5.7 7.5 78 1.8 WNW 26 41 14 22 - - 0.6
22/10:30am 12.3 8.3 8.4 77 1.9 WNW 19 32 10 17 - - 0.2
22/10:00am 10.3 6.1 7.5 83 1.4 WNW 19 24 10 13 - - 0.0
22/09:30am 11.3 6.0 6.6 73 2.2 WNW 24 33 13 18 - - 0.0
22/09:00am 11.2 6.5 6.1 71 2.4 NW 20 30 11 16 - - 0.4
22/08:30am 10.6 5.9 6.0 73 2.2 NW 20 28 11 15 - - 0.4
22/08:00am 9.5 6.2 6.4 81 1.5 NW 13 17 7 9 - - 0.4
22/07:30am 7.6 4.1 5.6 87 0.9 NW 13 17 7 9 - - 0.4
22/07:00am 5.8 3.1 3.8 87 0.9 NNW 7 11 4 6 - - 0.4
22/06:30am 5.1 2.3 3.3 88 0.8 NNW 7 9 4 5 - - 0.4
22/06:00am 5.2 2.0 3.2 87 0.8 NNW 9 9 5 5 - - 0.4
22/05:30am 5.6 2.1 3.4 86 0.9 NW 11 13 6 7 - - 0.4
22/05:00am 6.1 2.3 3.8 85 1.0 WNW 13 17 7 9 - - 0.4
22/04:30am 5.4 1.5 3.6 88 0.8 NW 13 17 7 9 - - 0.4
22/04:00am 6.0 2.1 3.5 84 1.1 NW 13 17 7 9 - - 0.4
22/03:30am 5.6 1.4 3.8 88 0.8 WNW 15 19 8 10 - - 0.4
22/03:00am 3.6 -0.6 1.8 88 0.7 W 13 13 7 7 - - 0.4
22/02:30am 4.5 0.4 2.4 86 0.9 WNW 13 15 7 8 - - 0.4
22/02:00am 5.6 1.3 3.3 85 1.0 WNW 15 19 8 10 - - 0.4
22/01:30am 2.9 -1.4 1.3 89 0.6 WNW 13 17 7 9 - - 0.4
22/01:00am 2.4 -1.5 1.1 91 0.5 W 11 13 6 7 - - 0.4
22/12:30am 2.3 -1.6 1.0 91 0.5 WNW 11 13 6 7 - - 0.4
22/12:00am 2.6 -1.7 1.3 91 0.5 WNW 13 15 7 8 - - 0.4
 
Date/Time
CST
Temp
°C
App
Temp
°C
Dew
Point
°C
Rel
Hum
%
Delta-T
°C
Wind Press
QNH
hPa
Press
MSL
hPa
Rain since
9am
mm
Dir  Spd
km/h
Gust
km/h
Spd
kts
Gust
kts
21/11:30pm 2.5 -1.0 1.2 91 0.5 WNW 9 11 5 6 - - 0.4
21/11:00pm 3.0 -0.5 1.5 90 0.6 WNW 9 11 5 6 - - 0.4
21/10:30pm 2.7 -1.2 1.1 89 0.6 W 11 13 6 7 - - 0.4
21/10:00pm 3.1 -1.5 1.3 88 0.7 W 15 17 8 9 - - 0.4
21/09:30pm 2.7 -1.3 0.8 87 0.7 WNW 11 13 6 7 - - 0.4
21/09:00pm 3.3 -1.0 0.9 84 0.9 W 13 17 7 9 - - 0.4
21/08:30pm 3.3 -0.6 1.2 86 0.8 W 11 11 6 6 - - 0.4
21/08:00pm 4.5 0.0 2.2 85 0.9 W 15 19 8 10 - - 0.4
21/07:30pm 4.6 1.2 2.1 84 1.0 W 9 11 5 6 - - 0.4
21/07:00pm 5.6 1.3 3.3 85 1.0 W 15 19 8 10 - - 0.4
21/06:30pm 5.7 2.8 2.7 81 1.2 WSW 7 15 4 8 - - 0.4
21/06:00pm 7.8 4.4 4.0 77 1.7 WSW 11 15 6 8 - - 0.4
21/05:30pm 8.7 4.3 4.5 75 1.9 WSW 17 26 9 14 - - 0.4
21/05:00pm 8.9 3.5 4.5 74 2.0 WSW 22 32 12 17 - - 0.4
21/04:30pm 10.0 5.3 5.0 71 2.3 WSW 19 24 10 13 - - 0.4
21/04:00pm 10.2 5.3 5.2 71 2.3 WSW 20 30 11 16 - - 0.4
21/03:30pm 10.7 5.1 5.3 69 2.5 WSW 24 33 13 18 - - 0.4
21/03:00pm 10.7 5.3 6.5 75 2.0 WSW 24 41 13 22 - - 0.4
21/02:30pm 11.7 6.8 5.1 64 3.1 WSW 20 28 11 15 - - 0.4
21/02:00pm 11.8 6.9 6.9 72 2.4 SW 22 33 12 18 - - 0.4
21/01:30pm 11.7 7.2 6.0 68 2.7 SW 19 28 10 15 - - 0.4
21/01:00pm 12.5 7.5 6.3 66 3.0 WSW 22 32 12 17 - - 0.4
21/12:30pm 11.3 6.5 5.8 69 2.6 SW 20 33 11 18 - - 0.4
21/12:00pm 10.9 5.2 6.8 76 2.0 SW 26 35 14 19 - - 0.4
21/11:30am 9.3 2.9 5.3 76 1.8 SW 28 44 15 24 - - 0.4
21/11:00am 9.8 5.3 7.1 83 1.3 SW 20 30 11 16 - - 0.4
21/10:30am 7.8 0.6 4.9 82 1.3 SW 32 48 17 26 - - 0.0
21/10:25am 8.8 3.0 4.4 74 2.0 SW 24 48 13 26 - - 0.0
21/10:00am 10.9 6.9 6.5 74 2.1 SW 17 24 9 13 - - 0.0
21/09:30am 10.8 6.2 6.4 74 2.1 SW 20 32 11 17 - - 0.0
21/09:00am 10.9 5.2 6.6 75 2.0 SSW 26 37 14 20 - - 23.4
21/08:30am 10.2 4.7 6.0 75 2.0 SW 24 33 13 18 - - 23.4
21/08:00am 9.5 4.6 6.8 83 1.3 SW 22 30 12 16 - - 23.4
21/07:30am 8.1 3.6 6.2 88 0.9 SW 19 24 10 13 - - 23.4
21/07:00am 7.9 2.5 6.4 90 0.7 SW 24 35 13 19 - - 23.4
21/06:30am 7.9 3.0 6.8 93 0.5 SSW 22 30 12 16 - - 23.4
21/06:00am 8.0 3.7 6.9 93 0.5 WSW 19 30 10 16 - - 23.0
21/05:30am 7.9 2.7 7.1 95 0.4 SSW 24 33 13 18 - - 23.0
21/05:00am 7.4 3.1 6.8 96 0.3 SW 19 28 10 15 - - 22.6
21/04:30am 6.2 2.0 5.6 96 0.3 WSW 17 24 9 13 - - 22.2
21/04:00am 6.0 2.2 5.6 97 0.2 WSW 15 20 8 11 - - 22.2
21/03:30am 4.1 0.2 3.5 96 0.2 W 13 15 7 8 - - 22.2
21/03:00am 4.0 0.5 3.4 96 0.2 W 11 13 6 7 - - 22.2
21/02:30am 4.3 1.2 3.6 95 0.3 W 9 11 5 6 - - 22.2
21/02:00am 5.9 3.1 5.3 96 0.3 WSW 9 11 5 6 - - 22.2
21/01:30am 6.5 3.5 6.1 97 0.2 W 11 17 6 9 - - 22.2
21/01:00am 5.8 3.0 5.1 95 0.3 WNW 9 11 5 6 - - 22.2
21/12:30am 7.5 4.7 6.8 95 0.3 WNW 11 13 6 7 - - 22.2
21/12:00am 7.5 4.7 6.9 96 0.3 W 11 13 6 7 - - 22.2
 
Date/Time
CST
Temp
°C
App
Temp
°C
Dew
Point
°C
Rel
Hum
%
Delta-T
°C
Wind Press
QNH
hPa
Press
MSL
hPa
Rain since
9am
mm
Dir  Spd
km/h
Gust
km/h
Spd
kts
Gust
kts
20/11:30pm 7.5 5.1 6.8 95 0.3 W 9 11 5 6 - - 22.2
20/11:00pm 8.1 5.8 7.5 96 0.3 NW 9 13 5 7 - - 22.2
20/10:30pm 8.3 6.5 7.9 97 0.2 NNW 7 7 4 4 - - 22.2
20/10:00pm 8.3 6.4 7.7 96 0.3 NNW 7 9 4 5 - - 22.2
20/09:30pm 8.3 6.6 7.7 96 0.3 NNE 6 7 3 4 - - 22.2
20/09:00pm 8.5 8.0 7.9 96 0.3 CALM 0 6 0 3 - - 22.2
20/08:30pm 8.6 7.0 8.0 96 0.3 SSW 6 7 3 4 - - 21.8
20/08:00pm 8.6 6.4 7.8 95 0.4 SSE 9 13 5 7 - - 21.4
20/07:30pm 8.9 7.1 8.1 95 0.4 S 7 11 4 6 - - 21.2
20/07:00pm 9.2 6.4 8.4 95 0.4 SW 13 17 7 9 - - 21.0
20/06:30pm 9.5 6.7 8.7 95 0.4 WSW 13 15 7 8 - - 20.6
20/06:00pm 9.8 7.9 9.0 95 0.4 WSW 9 11 5 6 - - 19.4
20/05:30pm 9.8 8.3 9.0 95 0.4 SW 7 9 4 5 - - 18.8
20/05:00pm 9.8 8.2 8.9 94 0.4 WSW 7 11 4 6 - - 18.4
20/04:30pm 10.6 9.3 9.8 95 0.4 SSW 7 11 4 6 - - 18.0
20/04:00pm 10.8 9.5 10.0 95 0.4 SW 7 11 4 6 - - 17.6
20/03:30pm 10.9 9.6 10.1 95 0.4 SW 7 9 4 5 - - 17.0

Other formats

Comma delimited format used in spreadsheet applications
http://www.bom.gov.au/fwo/IDS60801/IDS60801.94807.axf

JavaScript Object Notation format (JSON) in row-major order
http://www.bom.gov.au/fwo/IDS60801/IDS60801.94807.json

Data quality

Most of these data are generated automatically and are frequently updated. Quality checks on data are not normally performed. It is possible for incorrect values to appear. Refer to information at About Latest Weather Observations and please check the disclaimer before using these data.